Hattiesburg Bobby L Chain Municipal Airport
KHBG : now visible

Airfield :











YOU CAN JOIN US ON...

 
LOGIN :

Register | Disclaimer

   EN    FR    IT 

 









Legend :    VFR   Marginal VFR   IFR   Intensive IFR   Very Intensive IFR
Visi :
Ceiling :
>= 8 km
>= 3000ft
5 to 8 km
1000 to 3000 ft
1500m to 5 km
500 to 1000 ft
800 to 1500m
200 to 500 ft
< 800m
< 200 ft
Symbols :   Thunderstorms  Fog  Heavy snow  Heavy precipitations  Wind > 20 kt






- Airport Elevation : 151 ft


KHBG - Hattiesburg Bobby L Chain Municipal

CURRENT METAR :
  • 081953Z AUTO 14006KT 10SM BKN021 OVC031 20/15 A3007 RMK AO2 SLP180 T02000150

EXPIRED METARs :
  • 081853Z AUTO 14007KT 10SM BKN022 OVC027 19/14 A3008 RMK AO2 SLP185 T01940144
  • 081753Z AUTO VRB03KT 10SM BKN019 18/13 A3010 RMK AO2 SLP193 T01830133 10189 20111 56024

TAF KHBG
Valid from the 08 at 18:00 until the 09 at 18:00 UTC


081731Z 0818/0918 15005KT P6SM BKN015 OVC025
FM082200 17003KT P6SM BKN030
FM091000 17003KT 5SM BR OVC010
FM091400 19008KT 6SM BR OVC015



MET'MAP, your aeronautical weather chart ! - Copyright ORBIFLY December 2007 - Disclaimer

ORBIFLY MET'MAP TEAM :

Programming & Development : Alexandra Zaïnal
Concept & original design : Baudouin d'Aumeries
Assistance for programming : Marc-Olivier Méhu
Technical & hardware support : Manuel Goepfert

Contact : metmap@orbifly.com




SOURCES & CREDITS :

   NOAA       Earth
Advisory